Time;durP1;ratioP1;P1;durP2;ratioP2;P2;SDS_P1;SDS_P2;PMS_P1;PMS_P2;Temp;Humidity;BMP_temperature;BMP_pressure;BME280_temperature;BME280_humidity;BME280_pressure;Samples;Min_cycle;Max_cycle;Signal;HPM_P1;HPM_P2
2021/04/26 00:00:24;;;;;;;9.45;2.53;;;9.40;67.00;;;;;;4944767;28;20051;-62
2021/04/26 00:02:50;;;;;;;10.80;3.22;;;9.50;65.90;;;;;;4942024;28;20043;-62
2021/04/26 00:05:16;;;;;;;10.02;4.28;;;9.60;65.90;;;;;;4942345;28;20475;-62
2021/04/26 00:07:42;;;;;;;11.30;2.72;;;9.70;66.30;;;;;;4942372;28;20114;-61
2021/04/26 00:10:08;;;;;;;6.30;1.42;;;9.70;65.60;;;;;;4943168;28;20031;-61
2021/04/26 00:12:34;;;;;;;4.13;1.13;;;9.70;63.60;;;;;;4941957;28;20495;-62
2021/04/26 00:15:04;;;;;;;9.68;2.85;;;9.60;63.30;;;;;;4947184;28;20051;-64
2021/04/26 00:17:30;;;;;;;6.18;1.40;;;9.50;64.10;;;;;;4946573;28;20066;-65
2021/04/26 00:19:56;;;;;;;3.95;1.27;;;9.50;63.80;;;;;;4943662;28;20086;-64
2021/04/26 00:22:22;;;;;;;5.85;1.40;;;9.50;62.80;;;;;;4942106;28;20114;-60
2021/04/26 00:24:47;;;;;;;8.45;1.42;;;9.60;62.70;;;;;;4943133;28;20093;-60
2021/04/26 00:27:14;;;;;;;5.35;1.05;;;9.50;62.00;;;;;;4942032;28;20047;-62
2021/04/26 00:29:39;;;;;;;11.77;1.90;;;9.50;62.20;;;;;;4955383;28;20035;-59
2021/04/26 00:32:05;;;;;;;4.22;1.70;;;9.40;61.90;;;;;;4941813;28;20047;-58
2021/04/26 00:34:31;;;;;;;6.53;1.38;;;9.40;63.30;;;;;;4940449;28;20071;-59
2021/04/26 00:36:57;;;;;;;6.55;1.75;;;9.40;62.50;;;;;;4943180;28;20188;-59
2021/04/26 00:39:22;;;;;;;4.75;1.85;;;9.40;61.80;;;;;;4941419;28;20032;-59
2021/04/26 00:41:48;;;;;;;4.38;1.25;;;9.40;62.30;;;;;;4939171;28;20429;-60
2021/04/26 00:44:14;;;;;;;6.60;1.20;;;9.30;62.10;;;;;;4939458;28;20039;-59
2021/04/26 00:46:40;;;;;;;8.75;1.35;;;9.40;62.50;;;;;;4942425;28;20050;-59
2021/04/26 00:49:05;;;;;;;4.65;1.35;;;9.50;62.30;;;;;;4942017;28;20039;-58
2021/04/26 00:51:31;;;;;;;3.58;0.98;;;9.50;62.50;;;;;;4940916;28;20051;-59
2021/04/26 00:53:57;;;;;;;7.60;1.40;;;9.50;62.50;;;;;;4941646;28;20140;-58
2021/04/26 00:56:23;;;;;;;6.40;1.10;;;9.50;61.50;;;;;;4943343;28;20117;-58
2021/04/26 00:58:49;;;;;;;7.03;2.08;;;9.50;61.60;;;;;;4940743;28;22121;-58
2021/04/26 01:01:17;;;;;;;12.15;3.63;;;9.60;62.80;;;;;;4941698;28;20039;-58
2021/04/26 01:03:43;;;;;;;7.65;2.22;;;9.70;65.60;;;;;;4940852;28;20066;-58
2021/04/26 01:06:10;;;;;;;5.53;2.38;;;9.90;66.80;;;;;;4941761;28;20047;-59
2021/04/26 01:08:35;;;;;;;7.80;3.33;;;9.90;65.50;;;;;;4941454;28;20095;-58
2021/04/26 01:11:02;;;;;;;15.45;3.50;;;10.20;66.80;;;;;;4941531;28;20435;-58
2021/04/26 01:13:40;;;;;;;7.22;3.35;;;10.70;67.20;;;;;;4941105;28;20035;-58
2021/04/26 01:16:16;;;;;;;7.28;3.83;;;11.00;66.50;;;;;;4942689;28;20156;-58
2021/04/26 01:18:52;;;;;;;4.00;2.22;;;11.30;65.60;;;;;;4939933;28;20539;-58
2021/04/26 01:21:55;;;;;;;4.38;1.48;;;11.50;64.40;;;;;;4939845;28;20087;-59
2021/04/26 01:24:46;;;;;;;6.20;2.03;;;11.30;60.90;;;;;;4940557;28;20165;-58
2021/04/26 01:27:36;;;;;;;5.63;3.17;;;11.10;63.30;;;;;;4941027;28;20036;-59
2021/04/26 01:30:07;;;;;;;6.93;3.17;;;11.10;63.40;;;;;;4939322;28;20051;-59
2021/04/26 01:32:43;;;;;;;4.28;2.10;;;11.00;64.20;;;;;;4940914;28;20043;-59
2021/04/26 01:35:12;;;;;;;7.25;2.38;;;11.30;64.40;;;;;;4940269;28;20066;-58
2021/04/26 01:37:40;;;;;;;6.55;3.05;;;11.60;62.50;;;;;;4954745;28;20046;-59
2021/04/26 01:40:10;;;;;;;6.68;3.53;;;11.80;62.50;;;;;;4939740;28;20126;-59
2021/04/26 01:42:38;;;;;;;4.97;2.80;;;12.20;62.70;;;;;;4939773;28;20032;-59
2021/04/26 01:45:07;;;;;;;5.22;2.58;;;12.30;61.80;;;;;;4941824;28;20055;-59
2021/04/26 01:47:35;;;;;;;6.38;3.35;;;12.40;62.10;;;;;;4941492;28;20098;-59
2021/04/26 01:50:03;;;;;;;5.95;3.00;;;12.70;61.70;;;;;;4940515;28;20448;-59
2021/04/26 01:52:30;;;;;;;7.20;3.08;;;12.90;61.10;;;;;;4940833;28;20158;-58
2021/04/26 01:54:57;;;;;;;8.27;3.38;;;13.10;60.70;;;;;;4942024;28;20043;-57
2021/04/26 01:57:24;;;;;;;7.88;3.40;;;13.30;60.20;;;;;;4939288;28;20039;-57
2021/04/26 01:59:50;;;;;;;7.95;3.60;;;13.40;59.80;;;;;;4937489;28;20050;-60
2021/04/26 02:02:16;;;;;;;5.85;3.42;;;13.60;59.40;;;;;;4940369;28;20043;-57
2021/04/26 02:04:43;;;;;;;5.85;3.20;;;13.70;58.90;;;;;;4940938;28;20067;-57
2021/04/26 02:07:11;;;;;;;7.25;3.78;;;13.80;58.50;;;;;;4939666;28;20130;-59
2021/04/26 02:09:40;;;;;;;6.97;3.22;;;13.90;58.10;;;;;;4940392;28;20405;-58
2021/04/26 02:12:08;;;;;;;7.15;3.33;;;14.00;57.90;;;;;;4941583;28;20047;-57
2021/04/26 02:14:35;;;;;;;6.68;3.28;;;14.10;57.70;;;;;;4941567;28;20047;-57
2021/04/26 02:17:03;;;;;;;7.20;3.50;;;14.10;57.50;;;;;;4940459;28;20043;-57
2021/04/26 02:19:29;;;;;;;5.15;2.75;;;14.20;57.60;;;;;;4940567;28;20050;-59
2021/04/26 02:21:55;;;;;;;5.93;3.28;;;14.20;57.00;;;;;;4939918;28;20133;-57
2021/04/26 02:24:21;;;;;;;7.30;3.20;;;14.30;57.00;;;;;;4940268;28;20043;-57
2021/04/26 02:26:47;;;;;;;7.28;3.25;;;14.30;57.00;;;;;;4940005;28;20102;-57
2021/04/26 02:29:12;;;;;;;7.07;3.40;;;14.40;56.80;;;;;;4941006;28;20439;-57
2021/04/26 02:31:41;;;;;;;9.43;3.10;;;14.40;56.60;;;;;;4941347;28;20051;-57
2021/04/26 02:34:14;;;;;;;4.85;2.45;;;14.40;56.40;;;;;;4939296;28;20050;-57
2021/04/26 02:36:44;;;;;;;6.38;3.45;;;14.50;55.90;;;;;;4938985;28;20444;-57
2021/04/26 02:39:12;;;;;;;5.63;3.38;;;14.50;55.70;;;;;;4939735;28;20036;-57
2021/04/26 02:41:42;;;;;;;6.00;3.40;;;14.50;55.20;;;;;;4940838;28;20326;-57
2021/04/26 02:44:24;;;;;;;6.80;2.97;;;14.60;55.10;;;;;;4939788;28;20047;-57
2021/04/26 02:46:53;;;;;;;6.90;3.17;;;14.70;55.00;;;;;;4940401;28;20058;-57
2021/04/26 02:49:19;;;;;;;5.28;2.60;;;14.70;54.60;;;;;;4940924;28;20044;-58
2021/04/26 02:51:45;;;;;;;6.93;2.70;;;14.70;54.30;;;;;;4943287;28;20063;-57
2021/04/26 02:54:11;;;;;;;5.95;2.67;;;14.80;54.10;;;;;;4956875;28;20333;-57
2021/04/26 02:56:39;;;;;;;5.32;2.92;;;14.70;53.90;;;;;;4943919;28;20065;-58
2021/04/26 02:59:07;;;;;;;6.10;2.65;;;14.70;53.80;;;;;;4944030;28;20479;-57
2021/04/26 03:01:35;;;;;;;5.75;2.67;;;14.80;53.80;;;;;;4943677;28;20554;-57
2021/04/26 03:04:03;;;;;;;5.22;2.65;;;14.80;53.80;;;;;;4942619;28;20059;-57
2021/04/26 03:06:29;;;;;;;5.65;2.83;;;14.80;53.90;;;;;;4943594;28;20043;-57
2021/04/26 03:08:57;;;;;;;5.95;2.72;;;14.80;54.00;;;;;;4944089;28;20040;-57
2021/04/26 03:11:26;;;;;;;4.75;2.70;;;14.70;53.90;;;;;;4943233;28;20048;-57
2021/04/26 03:13:52;;;;;;;4.38;2.63;;;14.70;53.90;;;;;;4942023;28;20173;-58
2021/04/26 03:16:18;;;;;;;4.43;2.50;;;14.70;54.00;;;;;;4942961;28;20043;-58
2021/04/26 03:18:44;;;;;;;5.00;2.65;;;14.70;54.00;;;;;;4943741;28;20039;-57
2021/04/26 03:21:11;;;;;;;4.97;2.58;;;14.80;53.90;;;;;;4944471;28;20055;-56
2021/04/26 03:23:37;;;;;;;4.40;2.60;;;14.80;53.70;;;;;;4943566;28;20055;-57
2021/04/26 03:26:06;;;;;;;4.10;2.30;;;14.80;53.70;;;;;;4944037;28;20507;-57
2021/04/26 03:28:38;;;;;;;4.43;2.40;;;14.70;53.60;;;;;;4944169;28;20102;-57
2021/04/26 03:31:04;;;;;;;5.13;2.20;;;14.70;53.70;;;;;;4943810;28;20039;-57
2021/04/26 03:33:35;;;;;;;4.07;2.50;;;14.70;53.80;;;;;;4943743;28;22298;-58
2021/04/26 03:36:02;;;;;;;5.30;2.35;;;14.70;53.70;;;;;;4943424;28;20044;-57
2021/04/26 03:38:29;;;;;;;4.05;2.10;;;14.70;53.80;;;;;;4944769;28;20530;-57
2021/04/26 03:40:57;;;;;;;4.63;2.10;;;14.60;53.60;;;;;;4943502;28;20032;-57
2021/04/26 03:43:24;;;;;;;4.47;2.15;;;14.60;53.40;;;;;;4943119;28;20045;-57
2021/04/26 03:45:52;;;;;;;4.63;2.50;;;14.60;53.40;;;;;;4944867;28;20055;-58
2021/04/26 03:48:17;;;;;;;4.07;2.35;;;14.60;53.50;;;;;;4944221;28;20072;-57
2021/04/26 03:50:43;;;;;;;6.57;2.38;;;14.60;53.30;;;;;;4942854;28;20119;-58
2021/04/26 03:53:09;;;;;;;3.45;2.00;;;14.60;53.10;;;;;;4944301;28;20032;-57
2021/04/26 03:55:35;;;;;;;4.00;2.08;;;14.60;53.00;;;;;;4944317;28;20047;-57
2021/04/26 03:58:01;;;;;;;6.50;2.15;;;14.60;53.20;;;;;;4943884;28;20050;-57
2021/04/26 04:00:26;;;;;;;6.82;2.38;;;14.60;53.30;;;;;;4943553;28;20118;-57
2021/04/26 04:02:52;;;;;;;4.00;1.90;;;14.70;53.00;;;;;;4941310;28;20043;-57
2021/04/26 04:05:19;;;;;;;3.40;1.92;;;14.70;53.30;;;;;;4943472;28;20491;-57
2021/04/26 04:07:46;;;;;;;4.95;1.73;;;14.70;52.70;;;;;;4944023;28;20047;-57
2021/04/26 04:10:13;;;;;;;4.35;1.92;;;14.70;52.60;;;;;;4942014;28;20050;-57
2021/04/26 04:12:40;;;;;;;4.20;1.83;;;14.70;52.50;;;;;;4941588;28;20066;-57
2021/04/26 04:15:08;;;;;;;4.03;2.15;;;14.70;52.30;;;;;;4942874;28;20051;-57
2021/04/26 04:17:34;;;;;;;3.22;1.77;;;14.70;52.60;;;;;;4942497;28;20036;-57
2021/04/26 04:19:59;;;;;;;4.53;1.73;;;14.60;52.60;;;;;;4943098;28;20053;-58
2021/04/26 04:22:25;;;;;;;4.30;1.80;;;14.60;52.70;;;;;;4942734;28;20043;-58
2021/04/26 04:24:51;;;;;;;4.60;1.80;;;14.60;52.60;;;;;;4941994;28;20095;-58
2021/04/26 04:27:17;;;;;;;4.50;1.77;;;14.60;52.60;;;;;;4941676;28;20326;-58
2021/04/26 04:29:43;;;;;;;3.33;1.92;;;14.70;52.60;;;;;;4941460;28;20495;-58
2021/04/26 04:32:09;;;;;;;4.88;1.77;;;14.60;52.30;;;;;;4942143;28;20522;-57
2021/04/26 04:34:36;;;;;;;3.85;1.60;;;14.60;52.30;;;;;;4941267;28;20054;-58
2021/04/26 04:37:02;;;;;;;4.15;1.88;;;14.60;52.30;;;;;;4942026;28;20082;-57
2021/04/26 04:39:27;;;;;;;3.17;1.75;;;14.60;52.20;;;;;;4941611;28;20047;-57
2021/04/26 04:41:53;;;;;;;3.00;1.80;;;14.60;52.10;;;;;;4939515;28;20059;-58
2021/04/26 04:44:19;;;;;;;5.05;1.77;;;14.60;52.20;;;;;;4941682;28;20035;-57
2021/04/26 04:46:45;;;;;;;2.70;1.50;;;14.70;52.30;;;;;;4941855;28;20045;-57
2021/04/26 04:49:11;;;;;;;3.33;2.00;;;14.70;52.00;;;;;;4941299;28;20046;-57
2021/04/26 04:51:37;;;;;;;6.05;1.83;;;14.70;52.00;;;;;;4941914;28;20039;-60
2021/04/26 04:54:04;;;;;;;3.33;1.52;;;14.50;49.00;;;;;;4940891;28;20031;-61
2021/04/26 04:56:29;;;;;;;3.85;1.90;;;13.90;47.40;;;;;;4942103;28;22222;-60
2021/04/26 04:58:55;;;;;;;3.70;1.70;;;13.10;47.90;;;;;;4953617;28;20044;-60
2021/04/26 05:01:21;;;;;;;4.88;1.40;;;12.40;48.90;;;;;;4941579;28;20503;-60
2021/04/26 05:03:47;;;;;;;4.47;1.58;;;11.90;50.10;;;;;;4939269;28;20040;-59
2021/04/26 05:06:12;;;;;;;3.75;1.10;;;11.50;50.80;;;;;;4942258;28;20047;-59
2021/04/26 05:08:38;;;;;;;7.88;1.70;;;11.10;51.40;;;;;;4940256;28;20381;-60
2021/04/26 05:11:04;;;;;;;5.25;1.20;;;10.60;52.30;;;;;;4941550;28;20039;-59
2021/04/26 05:13:31;;;;;;;4.10;1.40;;;10.30;53.40;;;;;;4939960;28;20122;-59
2021/04/26 05:15:57;;;;;;;7.80;1.70;;;10.10;54.00;;;;;;4939531;28;20046;-59
2021/04/26 05:18:23;;;;;;;4.85;1.33;;;10.00;54.80;;;;;;4939900;28;20388;-59
2021/04/26 05:20:49;;;;;;;3.75;1.42;;;9.90;55.20;;;;;;4941275;28;20051;-60
2021/04/26 05:23:15;;;;;;;6.47;1.35;;;9.90;55.80;;;;;;4941379;28;20046;-59
2021/04/26 05:25:41;;;;;;;6.95;1.42;;;9.80;56.00;;;;;;4941045;28;20385;-60
2021/04/26 05:28:07;;;;;;;4.40;1.10;;;9.80;56.10;;;;;;4941730;28;20487;-60
2021/04/26 05:30:33;;;;;;;4.75;1.20;;;9.80;56.40;;;;;;4940722;28;20624;-61
2021/04/26 05:33:00;;;;;;;3.63;1.02;;;9.80;56.50;;;;;;4940643;28;20432;-60
2021/04/26 05:35:26;;;;;;;5.60;1.30;;;9.80;56.60;;;;;;4940471;28;20672;-60
2021/04/26 05:37:53;;;;;;;5.18;1.50;;;9.80;56.80;;;;;;4939430;28;20042;-60
2021/04/26 05:40:18;;;;;;;3.45;1.10;;;9.80;56.90;;;;;;4940968;28;20039;-60
2021/04/26 05:42:44;;;;;;;4.07;1.33;;;9.80;57.00;;;;;;4941119;28;20050;-59
2021/04/26 05:45:11;;;;;;;5.10;1.40;;;9.80;57.10;;;;;;4941216;28;20522;-59
2021/04/26 05:47:37;;;;;;;5.90;1.10;;;9.90;57.00;;;;;;4940978;28;20117;-60
2021/04/26 05:50:04;;;;;;;3.95;1.38;;;10.00;56.90;;;;;;4940044;28;20039;-60
2021/04/26 05:52:30;;;;;;;8.93;1.38;;;10.10;56.80;;;;;;4939773;28;20039;-59
2021/04/26 05:54:55;;;;;;;5.78;1.20;;;10.20;56.70;;;;;;4939825;28;20835;-60
2021/04/26 05:57:21;;;;;;;4.20;1.20;;;10.30;56.50;;;;;;4953327;28;20054;-60
2021/04/26 05:59:47;;;;;;;7.45;1.30;;;10.50;56.20;;;;;;4942184;28;20047;-61
2021/04/26 06:02:13;;;;;;;5.00;1.67;;;10.60;55.80;;;;;;4940655;28;20103;-60
2021/04/26 06:04:39;;;;;;;5.32;2.28;;;10.80;55.40;;;;;;4939672;28;20051;-59
2021/04/26 06:07:04;;;;;;;10.05;2.10;;;11.00;54.80;;;;;;4942119;28;20104;-59
2021/04/26 06:09:30;;;;;;;6.82;1.67;;;11.20;54.50;;;;;;4940520;28;20114;-64
2021/04/26 06:11:56;;;;;;;5.63;1.42;;;11.20;54.30;;;;;;4941335;28;20573;-62
2021/04/26 06:14:21;;;;;;;4.65;1.27;;;11.40;54.30;;;;;;4938390;28;20093;-61
2021/04/26 06:16:47;;;;;;;6.43;1.42;;;11.50;54.10;;;;;;4952629;28;20051;-61
2021/04/26 06:19:13;;;;;;;7.53;1.40;;;11.60;53.80;;;;;;4954169;28;20070;-60
2021/04/26 06:21:39;;;;;;;7.78;1.00;;;11.70;53.50;;;;;;4941609;28;20051;-59
2021/04/26 06:24:05;;;;;;;6.38;1.20;;;11.80;53.20;;;;;;4939146;28;20127;-60
2021/04/26 06:26:31;;;;;;;8.40;1.50;;;11.90;53.00;;;;;;4943157;28;20049;-60
2021/04/26 06:28:57;;;;;;;6.60;1.55;;;12.20;52.70;;;;;;4943509;28;20039;-60
2021/04/26 06:31:22;;;;;;;9.45;1.30;;;12.40;52.30;;;;;;4944089;28;20146;-60
2021/04/26 06:33:48;;;;;;;8.25;1.48;;;12.60;51.70;;;;;;4944137;28;20047;-60
2021/04/26 06:36:14;;;;;;;8.43;1.10;;;12.80;50.80;;;;;;4942290;28;20554;-60
2021/04/26 06:38:40;;;;;;;4.03;1.38;;;13.00;50.10;;;;;;4944012;28;20047;-60
2021/04/26 06:41:06;;;;;;;4.03;0.95;;;13.20;49.50;;;;;;4959592;28;20517;-60
2021/04/26 06:43:32;;;;;;;5.05;0.82;;;13.40;49.10;;;;;;4941523;28;20045;-60
2021/04/26 06:45:57;;;;;;;2.72;0.98;;;13.60;48.80;;;;;;4943010;28;20043;-60
2021/04/26 06:48:24;;;;;;;5.13;1.05;;;13.80;48.30;;;;;;4944590;28;20134;-60
2021/04/26 06:50:50;;;;;;;5.45;1.23;;;14.00;47.90;;;;;;4943875;28;20050;-60
2021/04/26 06:53:16;;;;;;;9.65;1.55;;;14.20;47.60;;;;;;4943381;28;20062;-60
2021/04/26 06:55:42;;;;;;;4.38;1.00;;;14.50;46.90;;;;;;4943482;28;20582;-58
2021/04/26 06:58:08;;;;;;;5.43;1.00;;;14.80;46.30;;;;;;4943855;28;20042;-57
2021/04/26 07:00:34;;;;;;;4.10;1.40;;;15.30;49.10;;;;;;4943706;28;20042;-57
2021/04/26 07:03:00;;;;;;;3.92;0.85;;;15.90;48.40;;;;;;4943213;28;20054;-58
2021/04/26 07:05:26;;;;;;;5.22;0.98;;;16.30;45.30;;;;;;4956590;28;20052;-57
2021/04/26 07:07:52;;;;;;;3.65;1.23;;;16.30;44.40;;;;;;4943582;28;20039;-57
2021/04/26 07:10:18;;;;;;;5.07;1.25;;;16.40;45.60;;;;;;4942113;28;20071;-57
2021/04/26 07:12:44;;;;;;;5.00;0.98;;;16.50;44.90;;;;;;4940321;28;20039;-58
2021/04/26 07:15:12;;;;;;;6.38;1.13;;;16.50;42.70;;;;;;4943182;28;20509;-58
2021/04/26 07:17:38;;;;;;;4.85;1.95;;;16.50;42.70;;;;;;4943254;28;20105;-60
2021/04/26 07:20:05;;;;;;;8.63;2.35;;;16.40;43.80;;;;;;4942961;28;20063;-59
2021/04/26 07:22:31;;;;;;;5.50;1.45;;;16.50;45.10;;;;;;4943780;28;20028;-60
2021/04/26 07:24:57;;;;;;;9.68;2.08;;;16.80;43.90;;;;;;4943508;28;20889;-60
2021/04/26 07:27:23;;;;;;;3.28;0.65;;;17.00;44.70;;;;;;4943635;28;20051;-61
2021/04/26 07:29:49;;;;;;;6.13;1.88;;;17.20;42.20;;;;;;4943784;28;20039;-59
2021/04/26 07:32:15;;;;;;;5.68;2.05;;;17.20;42.70;;;;;;4943078;28;20467;-60
2021/04/26 07:34:41;;;;;;;3.70;2.05;;;17.40;43.50;;;;;;4942848;28;20063;-59
2021/04/26 07:37:07;;;;;;;3.42;0.95;;;17.70;43.90;;;;;;4941923;28;20035;-59
2021/04/26 07:39:33;;;;;;;4.03;1.02;;;17.90;41.10;;;;;;4942832;28;20404;-59
2021/04/26 07:42:00;;;;;;;3.03;0.85;;;17.60;39.20;;;;;;4942871;28;20043;-60
2021/04/26 07:44:26;;;;;;;5.70;1.98;;;17.20;38.70;;;;;;4942745;28;20099;-60
2021/04/26 07:46:53;;;;;;;4.97;1.05;;;17.20;40.40;;;;;;4942445;28;20118;-61
2021/04/26 07:49:19;;;;;;;6.00;0.85;;;17.20;39.80;;;;;;4942756;28;20102;-61
2021/04/26 07:51:45;;;;;;;6.95;0.95;;;17.10;38.90;;;;;;4943866;28;20351;-60
2021/04/26 07:54:11;;;;;;;4.20;1.08;;;17.00;38.60;;;;;;4941754;28;20392;-61
2021/04/26 07:56:36;;;;;;;4.10;1.17;;;16.90;38.80;;;;;;4940800;28;20114;-61
2021/04/26 07:59:02;;;;;;;6.70;1.45;;;17.00;38.60;;;;;;4955565;28;20502;-61
2021/04/26 08:01:28;;;;;;;3.08;0.80;;;16.80;38.40;;;;;;4944642;28;20050;-59
2021/04/26 08:03:54;;;;;;;3.38;1.35;;;16.90;39.00;;;;;;4940095;28;20117;-58
2021/04/26 08:06:20;;;;;;;8.63;1.00;;;16.90;38.80;;;;;;4944286;28;20427;-58
2021/04/26 08:08:46;;;;;;;6.38;1.10;;;16.90;39.00;;;;;;4959554;28;20097;-58
2021/04/26 08:11:12;;;;;;;5.65;1.00;;;16.80;38.50;;;;;;4942591;28;20953;-58
2021/04/26 08:13:37;;;;;;;3.75;1.02;;;16.70;38.50;;;;;;4943489;28;20407;-58
2021/04/26 08:16:04;;;;;;;7.78;1.88;;;16.70;38.80;;;;;;4941968;28;21001;-58
2021/04/26 08:18:30;;;;;;;4.97;1.35;;;16.70;38.50;;;;;;4943548;28;20047;-58
2021/04/26 08:20:55;;;;;;;6.53;1.42;;;16.60;38.50;;;;;;4941103;28;20053;-58
2021/04/26 08:23:21;;;;;;;5.22;1.17;;;16.80;39.80;;;;;;4940322;28;20059;-58
2021/04/26 08:25:47;;;;;;;5.82;1.60;;;17.20;39.40;;;;;;4942247;28;20047;-58
2021/04/26 08:28:16;;;;;;;6.68;1.17;;;17.40;40.90;;;;;;4943166;28;20059;-57
2021/04/26 08:30:42;;;;;;;9.05;1.10;;;17.40;39.40;;;;;;4940144;28;20821;-57
2021/04/26 08:33:08;;;;;;;4.85;1.20;;;17.10;38.00;;;;;;4940972;28;20135;-57
2021/04/26 08:35:34;;;;;;;5.00;1.10;;;16.80;37.60;;;;;;4941688;28;20177;-59
2021/04/26 08:38:00;;;;;;;11.18;1.95;;;16.70;39.40;;;;;;4942071;28;20394;-57
2021/04/26 08:40:26;;;;;;;4.65;1.35;;;16.80;41.40;;;;;;4940757;28;20035;-57
2021/04/26 08:42:52;;;;;;;5.90;1.50;;;17.10;40.00;;;;;;4941933;28;20039;-57
2021/04/26 08:45:19;;;;;;;7.70;1.80;;;17.20;39.80;;;;;;4942637;28;20388;-57
2021/04/26 08:47:46;;;;;;;6.03;1.65;;;17.30;40.30;;;;;;4940655;28;20201;-57
2021/04/26 08:50:12;;;;;;;7.32;1.40;;;17.30;40.40;;;;;;4940062;28;20051;-57
2021/04/26 08:52:39;;;;;;;4.47;1.33;;;17.30;39.50;;;;;;4940722;28;20111;-57
2021/04/26 08:55:07;;;;;;;5.35;1.42;;;17.30;38.40;;;;;;4938351;28;20568;-57
2021/04/26 08:57:33;;;;;;;8.10;1.58;;;17.30;38.00;;;;;;4940846;28;20395;-57
2021/04/26 08:59:58;;;;;;;5.57;1.20;;;17.40;39.80;;;;;;4954716;28;20039;-57
2021/04/26 09:02:24;;;;;;;5.28;1.35;;;17.50;38.10;;;;;;4941453;28;20035;-58
2021/04/26 09:04:55;;;;;;;5.22;1.20;;;17.50;37.20;;;;;;4942341;28;20054;-58
2021/04/26 09:07:21;;;;;;;4.05;1.63;;;17.50;37.40;;;;;;4953800;28;20035;-58
2021/04/26 09:09:52;;;;;;;3.78;0.80;;;17.50;37.70;;;;;;4941342;28;20047;-62
2021/04/26 09:12:28;;;;;;;6.30;1.10;;;17.50;36.60;;;;;;4940472;28;20039;-64
2021/04/26 09:14:59;;;;;;;5.70;1.50;;;17.70;36.50;;;;;;4940653;28;20388;-65
2021/04/26 09:17:26;;;;;;;7.47;1.27;;;17.60;40.40;;;;;;4939962;28;20039;-64
2021/04/26 09:19:53;;;;;;;6.18;1.42;;;17.70;38.40;;;;;;4939895;28;20126;-64
2021/04/26 09:22:49;;;;;;;5.15;1.00;;;17.50;37.50;;;;;;4942289;28;20062;-64
2021/04/26 09:25:35;;;;;;;6.63;1.30;;;17.30;36.90;;;;;;4941619;28;20039;-63
2021/04/26 09:28:11;;;;;;;3.83;0.88;;;17.00;38.30;;;;;;4940496;28;20066;-63
2021/04/26 09:30:41;;;;;;;4.85;1.27;;;17.10;37.70;;;;;;4940610;28;20039;-62
2021/04/26 09:33:35;;;;;;;4.25;1.25;;;17.00;36.80;;;;;;4939545;28;20043;-63
2021/04/26 09:38:46;;;;;;;6.32;0.85;;;16.70;37.50;;;;;;4941066;28;20055;-63
2021/04/26 09:41:22;;;;;;;5.03;0.88;;;16.60;36.40;;;;;;4938309;28;20122;-64
2021/04/26 09:43:51;;;;;;;5.03;1.67;;;16.50;36.40;;;;;;4940206;28;20050;-63
2021/04/26 09:46:21;;;;;;;6.68;1.63;;;16.40;36.00;;;;;;4940158;28;20579;-64
2021/04/26 09:48:47;;;;;;;3.50;0.93;;;16.30;38.00;;;;;;4941263;28;20391;-66
2021/04/26 09:51:20;;;;;;;7.25;1.38;;;16.30;37.60;;;;;;4938963;28;20199;-64
2021/04/26 09:53:54;;;;;;;7.63;1.80;;;16.20;36.10;;;;;;4940911;28;20070;-64
2021/04/26 09:56:33;;;;;;;3.25;0.85;;;16.20;36.60;;;;;;4954921;28;20403;-64
2021/04/26 09:59:02;;;;;;;2.35;0.80;;;16.10;36.50;;;;;;4940551;28;20039;-64
2021/04/26 10:01:28;;;;;;;4.28;1.65;;;16.10;36.60;;;;;;4940430;28;20051;-64
2021/04/26 10:03:55;;;;;;;3.80;0.82;;;16.10;38.20;;;;;;4940371;28;20122;-64
2021/04/26 10:06:24;;;;;;;5.28;1.42;;;16.00;37.50;;;;;;4940145;28;20101;-63
2021/04/26 10:08:55;;;;;;;3.33;1.10;;;15.90;37.00;;;;;;4954350;28;20043;-67
2021/04/26 10:11:26;;;;;;;5.07;1.25;;;15.80;36.50;;;;;;4940107;28;20114;-68
2021/04/26 10:14:04;;;;;;;5.22;1.40;;;15.70;36.70;;;;;;4941383;28;20376;-68
2021/04/26 10:16:35;;;;;;;3.03;1.02;;;15.80;37.00;;;;;;4941594;28;20502;-67
2021/04/26 10:19:02;;;;;;;2.50;1.15;;;15.70;36.40;;;;;;4939029;28;20047;-67
2021/04/26 10:21:31;;;;;;;2.75;0.82;;;15.70;37.00;;;;;;4938268;28;20054;-66
2021/04/26 10:23:57;;;;;;;4.82;1.10;;;16.00;39.50;;;;;;4952505;28;20043;-67
2021/04/26 10:26:49;;;;;;;3.25;0.82;;;16.30;39.50;;;;;;4940186;28;20055;-68
2021/04/26 10:29:27;;;;;;;4.53;1.02;;;16.50;36.00;;;;;;4939419;28;20126;-69
2021/04/26 10:31:59;;;;;;;2.85;0.80;;;16.30;35.80;;;;;;4936736;28;20050;-58
2021/04/26 10:34:36;;;;;;;3.20;1.30;;;16.30;37.30;;;;;;4940758;28;20040;-58
2021/04/26 10:37:20;;;;;;;5.28;1.40;;;16.20;36.10;;;;;;4940893;28;20086;-58
2021/04/26 10:39:58;;;;;;;3.50;0.60;;;16.40;38.50;;;;;;4939832;28;20051;-58
2021/04/26 10:42:50;;;;;;;4.63;0.90;;;16.60;36.30;;;;;;4938587;28;20055;-59
2021/04/26 10:45:22;;;;;;;4.63;1.08;;;16.70;36.20;;;;;;4938147;28;20043;-58
2021/04/26 10:48:09;;;;;;;3.58;1.20;;;16.90;38.50;;;;;;4939221;28;20127;-59
2021/04/26 10:50:40;;;;;;;3.72;1.00;;;17.20;37.60;;;;;;4939560;28;20079;-58
2021/04/26 10:53:08;;;;;;;3.03;1.15;;;17.30;38.40;;;;;;4940306;28;20043;-59
2021/04/26 10:55:34;;;;;;;1.17;0.70;;;17.30;35.70;;;;;;4940860;28;20047;-58
2021/04/26 10:58:22;;;;;;;2.95;0.60;;;17.40;35.90;;;;;;4939240;28;20036;-58
2021/04/26 11:00:49;;;;;;;3.30;0.88;;;17.40;34.60;;;;;;4953208;28;20126;-59
2021/04/26 11:03:17;;;;;;;2.75;0.60;;;17.20;35.30;;;;;;4939151;28;20968;-59
2021/04/26 11:05:45;;;;;;;2.80;0.40;;;16.90;33.60;;;;;;4940099;28;20039;-59
2021/04/26 11:08:35;;;;;;;2.88;0.52;;;16.70;33.40;;;;;;4937741;28;20047;-59
2021/04/26 11:13:46;;;;;;;1.25;0.60;;;16.40;34.10;;;;;;4944722;28;20475;-59
2021/04/26 11:16:12;;;;;;;1.88;0.50;;;16.40;33.80;;;;;;4942946;28;20440;-58
2021/04/26 11:18:40;;;;;;;1.85;0.60;;;16.30;32.90;;;;;;4943237;28;20046;-58
2021/04/26 11:21:07;;;;;;;6.70;1.70;;;16.00;32.90;;;;;;4941679;28;20141;-58
2021/04/26 11:23:44;;;;;;;6.47;1.20;;;15.90;36.70;;;;;;4944256;28;20377;-58
2021/04/26 11:26:17;;;;;;;2.53;0.70;;;16.20;36.50;;;;;;4943265;28;20142;-58
2021/04/26 11:29:01;;;;;;;2.83;0.80;;;16.20;35.70;;;;;;4944356;28;20399;-58
2021/04/26 11:31:50;;;;;;;2.25;0.70;;;16.10;34.40;;;;;;4943661;28;20043;-59
2021/04/26 11:34:18;;;;;;;4.20;1.42;;;15.90;35.40;;;;;;4946034;28;21052;-59
2021/04/26 11:37:02;;;;;;;5.25;0.70;;;15.60;35.00;;;;;;4942488;28;20047;-59
2021/04/26 11:39:33;;;;;;;4.70;0.63;;;15.40;35.30;;;;;;4939695;28;20039;-59
2021/04/26 11:42:01;;;;;;;2.92;1.17;;;15.20;34.60;;;;;;4943296;28;20511;-59
2021/04/26 11:44:28;;;;;;;4.93;0.88;;;15.00;34.50;;;;;;4943992;28;20690;-58
2021/04/26 11:47:04;;;;;;;3.60;0.80;;;15.00;34.90;;;;;;4941889;28;20621;-59
2021/04/26 11:49:34;;;;;;;3.63;1.10;;;14.90;36.10;;;;;;4958080;28;20027;-59
2021/04/26 11:52:00;;;;;;;3.25;0.75;;;15.10;37.70;;;;;;4944463;28;20039;-58
2021/04/26 11:54:28;;;;;;;2.28;0.47;;;15.30;37.80;;;;;;4941116;28;20115;-59
2021/04/26 11:57:16;;;;;;;4.30;1.17;;;15.40;36.60;;;;;;4942547;28;20044;-60
2021/04/26 11:59:52;;;;;;;4.40;0.63;;;15.30;35.10;;;;;;4942163;28;20432;-61
2021/04/26 12:02:38;;;;;;;3.92;0.80;;;15.10;35.50;;;;;;4943994;28;20529;-61
2021/04/26 12:05:07;;;;;;;3.83;0.70;;;14.90;35.40;;;;;;4940798;28;20067;-62
2021/04/26 12:07:33;;;;;;;1.88;0.45;;;14.70;36.30;;;;;;4942681;28;20423;-61
2021/04/26 12:10:31;;;;;;;1.83;0.70;;;14.60;36.10;;;;;;4943570;28;20070;-61
2021/04/26 12:13:05;;;;;;;2.58;0.70;;;14.60;36.20;;;;;;4945267;28;20062;-61
2021/04/26 12:15:35;;;;;;;6.82;1.45;;;14.50;36.90;;;;;;4945312;28;20803;-60
2021/04/26 12:18:02;;;;;;;4.25;0.85;;;14.40;37.00;;;;;;4942316;28;20047;-61
2021/04/26 12:20:29;;;;;;;5.50;0.90;;;14.40;37.40;;;;;;4942077;28;20062;-61
2021/04/26 12:22:57;;;;;;;2.83;0.63;;;14.40;37.40;;;;;;4940793;28;20039;-59
2021/04/26 12:25:27;;;;;;;4.22;0.60;;;14.30;38.00;;;;;;4942112;28;20050;-60
2021/04/26 12:28:00;;;;;;;3.40;0.80;;;14.40;38.50;;;;;;4942131;28;20559;-62
2021/04/26 12:30:27;;;;;;;2.17;0.52;;;14.40;38.00;;;;;;4939679;28;20509;-61
2021/04/26 12:32:54;;;;;;;3.08;0.65;;;14.40;38.50;;;;;;4942052;28;20562;-61
2021/04/26 12:35:29;;;;;;;2.17;1.13;;;14.30;38.80;;;;;;4942917;28;20044;-60
2021/04/26 12:37:56;;;;;;;7.60;0.80;;;14.10;38.20;;;;;;4939998;28;20050;-61
2021/04/26 12:40:29;;;;;;;3.75;1.00;;;13.80;38.20;;;;;;4945982;28;20046;-60
2021/04/26 12:42:58;;;;;;;4.65;1.38;;;13.70;38.90;;;;;;4941709;28;20043;-61
2021/04/26 12:45:39;;;;;;;1.48;0.60;;;13.70;39.50;;;;;;4942969;28;20047;-61
2021/04/26 12:48:16;;;;;;;1.88;0.63;;;13.60;39.70;;;;;;4940505;28;20109;-61
2021/04/26 12:50:45;;;;;;;1.92;0.60;;;13.50;39.50;;;;;;4940596;28;20050;-59
2021/04/26 12:53:10;;;;;;;3.17;0.88;;;13.30;39.60;;;;;;4941916;28;20040;-60
2021/04/26 12:55:52;;;;;;;3.50;0.57;;;13.30;39.80;;;;;;4955746;28;20405;-59
2021/04/26 12:58:26;;;;;;;2.47;0.82;;;13.30;40.20;;;;;;4942141;28;20043;-60
2021/04/26 13:01:18;;;;;;;2.53;0.60;;;13.30;39.60;;;;;;4954078;28;20069;-59